Time;durP1;ratioP1;P1;durP2;ratioP2;P2;SDS_P1;SDS_P2;PMS_P1;PMS_P2;Temp;Humidity;BMP_temperature;BMP_pressure;BME280_temperature;BME280_humidity;BME280_pressure;Samples;Min_cycle;Max_cycle;Signal;HPM_P1;HPM_P2
2023/12/18 00:01:12;;;;;;;3.90;2.00;;;;;;;5.45;98.47;97876.83;110097;1278;22207;-88
2023/12/18 00:03:43;;;;;;;2.30;1.40;;;;;;;5.50;98.30;97873.23;110276;1278;22401;-89
2023/12/18 00:06:09;;;;;;;2.40;1.40;;;;;;;5.53;97.97;97874.02;110163;1269;137818;-88
2023/12/18 00:08:35;;;;;;;4.70;2.30;;;;;;;5.56;97.96;97875.53;110272;1273;22215;-89
2023/12/18 00:11:02;;;;;;;5.70;3.30;;;;;;;5.59;97.00;97877.03;109979;1273;137698;-88
2023/12/18 00:13:28;;;;;;;3.20;2.20;;;;;;;5.62;97.08;97876.23;110279;1271;22942;-88
2023/12/18 00:15:54;;;;;;;6.80;4.80;;;;;;;5.64;97.13;97878.55;110268;1272;23159;-88
2023/12/18 00:18:20;;;;;;;8.80;5.60;;;;;;;5.58;95.93;97877.13;110167;1270;138366;-88
2023/12/18 00:20:46;;;;;;;8.00;4.40;;;;;;;5.51;96.17;97870.73;110302;1270;22356;-88
2023/12/18 00:23:12;;;;;;;5.60;3.70;;;;;;;5.47;96.62;97873.41;110187;1270;137968;-88
2023/12/18 00:25:38;;;;;;;15.70;8.30;;;;;;;5.42;96.48;97879.29;110040;1278;22404;-88
2023/12/18 00:28:04;;;;;;;10.50;5.90;;;;;;;5.30;96.09;97875.92;110121;1278;22322;-88
2023/12/18 00:30:30;;;;;;;10.30;6.00;;;;;;;5.23;96.38;97873.48;110000;1272;138055;-88
2023/12/18 00:32:56;;;;;;;8.60;5.40;;;;;;;5.11;96.26;97875.69;110076;1276;22324;-88
2023/12/18 00:35:22;;;;;;;12.70;7.60;;;;;;;5.00;95.86;97873.41;109910;1278;137912;-88
2023/12/18 00:37:48;;;;;;;11.90;7.20;;;;;;;4.93;96.50;97875.98;110120;1277;22990;-88
2023/12/18 00:40:14;;;;;;;8.80;5.90;;;;;;;4.91;96.50;97868.77;110020;1277;138800;-89
2023/12/18 00:42:41;;;;;;;10.50;6.10;;;;;;;4.85;96.73;97864.19;110092;1274;22265;-88
2023/12/18 00:45:07;;;;;;;6.70;3.80;;;;;;;4.82;97.23;97864.95;110106;1278;22997;-88
2023/12/18 00:47:33;;;;;;;3.10;2.20;;;;;;;4.82;97.19;97869.04;110136;1270;137751;-88
2023/12/18 00:49:59;;;;;;;2.00;1.50;;;;;;;4.87;97.36;97867.89;110060;1272;22210;-88
2023/12/18 00:52:25;;;;;;;4.40;2.30;;;;;;;4.90;97.48;97865.44;110176;1270;137958;-89
2023/12/18 00:54:51;;;;;;;3.50;2.10;;;;;;;4.95;96.91;97868.17;110234;1273;22985;-88
2023/12/18 00:57:17;;;;;;;6.40;3.70;;;;;;;4.99;97.08;97865.45;110045;1275;22238;-88
2023/12/18 00:59:44;;;;;;;3.60;1.90;;;;;;;5.02;96.49;97864.02;110188;1272;137971;-88
2023/12/18 01:02:09;;;;;;;4.00;1.70;;;;;;;5.06;96.83;97857.22;110006;1278;22300;-88
2023/12/18 01:04:36;;;;;;;2.60;1.70;;;;;;;5.09;96.69;97860.27;109978;1273;138586;-88
2023/12/18 01:07:02;;;;;;;2.30;2.10;;;;;;;5.12;96.52;97860.89;110100;1278;22270;-88
2023/12/18 01:09:28;;;;;;;4.20;2.80;;;;;;;5.16;96.33;97858.04;110364;1270;22241;-88
2023/12/18 01:11:54;;;;;;;4.60;2.30;;;;;;;5.18;96.11;97858.55;110169;1278;138048;-88
2023/12/18 01:14:20;;;;;;;3.30;1.80;;;;;;;5.19;96.29;97858.46;110295;1275;22182;-88
2023/12/18 01:16:46;;;;;;;3.60;2.30;;;;;;;5.20;96.07;97852.07;110198;1276;138493;-88
2023/12/18 01:19:13;;;;;;;6.30;3.10;;;;;;;5.20;95.89;97848.64;110242;1278;22250;-88
2023/12/18 01:21:39;;;;;;;2.50;1.60;;;;;;;5.15;95.68;97841.22;110274;1277;22190;-88
2023/12/18 01:24:05;;;;;;;6.40;1.30;;;;;;;5.14;96.01;97840.27;110207;1266;138754;-88
2023/12/18 01:26:31;;;;;;;2.10;1.40;;;;;;;5.17;95.97;97836.50;110262;1278;22191;-88
2023/12/18 01:28:57;;;;;;;4.50;1.40;;;;;;;5.18;96.16;97830.86;110140;1275;138681;-88
2023/12/18 01:31:23;;;;;;;2.30;1.20;;;;;;;5.22;95.65;97818.08;110283;1270;23011;-88
2023/12/18 01:33:52;;;;;;;2.10;1.20;;;;;;;5.26;95.50;97815.39;110310;1276;22669;-88
2023/12/18 01:36:18;;;;;;;1.60;1.40;;;;;;;5.30;95.68;97816.75;109969;1278;138296;-89
2023/12/18 01:38:44;;;;;;;4.30;2.50;;;;;;;5.32;94.84;97821.30;110149;1274;23037;-89
2023/12/18 01:41:10;;;;;;;3.70;3.00;;;;;;;5.27;94.47;97818.74;110024;1270;138456;-89
2023/12/18 01:43:36;;;;;;;4.40;2.50;;;;;;;5.20;94.33;97817.16;110316;1278;22181;-88
2023/12/18 01:46:03;;;;;;;1.80;1.30;;;;;;;5.19;94.33;97812.27;110331;1270;22261;-89
2023/12/18 01:48:29;;;;;;;2.30;1.20;;;;;;;5.21;94.31;97808.48;109891;1277;138011;-89
2023/12/18 01:50:56;;;;;;;2.20;1.10;;;;;;;5.25;94.15;97810.80;110093;1278;22856;-89
2023/12/18 01:53:33;;;;;;;1.50;1.00;;;;;;;5.23;94.41;97799.44;110017;1270;137918;-88
2023/12/18 01:56:00;;;;;;;1.70;1.20;;;;;;;5.25;94.07;97802.39;110042;1278;22405;-88
2023/12/18 01:58:26;;;;;;;1.60;1.10;;;;;;;5.30;93.64;97803.54;109940;1277;138786;-88
2023/12/18 02:00:52;;;;;;;1.80;1.10;;;;;;;5.35;93.68;97789.41;110021;1276;22206;-88
2023/12/18 02:03:19;;;;;;;1.30;1.00;;;;;;;5.40;93.54;97786.13;110093;1278;22847;-88
2023/12/18 02:05:45;;;;;;;2.00;1.10;;;;;;;5.46;93.68;97786.18;109944;1276;137914;-89
2023/12/18 02:08:11;;;;;;;2.50;1.20;;;;;;;5.52;92.85;97795.55;110147;1273;22211;-88
2023/12/18 02:10:37;;;;;;;1.30;1.00;;;;;;;5.57;92.28;97796.89;110139;1278;138215;-88
2023/12/18 02:13:04;;;;;;;1.90;1.10;;;;;;;5.62;92.20;97795.61;110037;1276;22278;-89
2023/12/18 02:15:30;;;;;;;1.50;1.00;;;;;;;5.68;91.79;97797.89;110206;1272;22204;-88
2023/12/18 02:17:56;;;;;;;1.30;0.80;;;;;;;5.74;91.41;97795.94;109969;1270;138123;-88
2023/12/18 02:20:22;;;;;;;2.10;1.10;;;;;;;5.77;91.82;97793.42;110192;1270;22236;-88
2023/12/18 02:22:48;;;;;;;1.30;1.10;;;;;;;5.81;91.08;97798.34;110137;1270;138521;-88
2023/12/18 02:25:15;;;;;;;1.90;1.10;;;;;;;5.83;91.38;97795.08;110257;1272;22929;-88
2023/12/18 02:27:41;;;;;;;1.20;1.00;;;;;;;5.83;91.39;97790.22;110051;1278;22812;-89
2023/12/18 02:30:07;;;;;;;1.90;1.10;;;;;;;5.84;91.37;97787.77;109961;1273;138618;-88
2023/12/18 02:32:35;;;;;;;1.30;0.90;;;;;;;5.84;91.25;97783.07;110330;1270;22221;-88
2023/12/18 02:35:01;;;;;;;1.00;0.70;;;;;;;5.86;90.69;97781.27;110021;1273;138485;-89
2023/12/18 02:37:28;;;;;;;1.40;0.70;;;;;;;5.88;90.17;97779.04;110041;1271;22982;-88
2023/12/18 02:39:54;;;;;;;0.80;0.70;;;;;;;5.93;90.19;97774.88;110310;1270;22442;-89
2023/12/18 02:42:20;;;;;;;2.00;0.80;;;;;;;5.97;89.22;97770.92;110173;1274;138100;-89
2023/12/18 02:44:46;;;;;;;1.20;0.60;;;;;;;6.04;89.23;97770.06;110285;1270;22319;-89
2023/12/18 02:47:12;;;;;;;1.40;0.80;;;;;;;6.08;89.56;97766.19;109868;1274;138649;-88
2023/12/18 02:49:38;;;;;;;1.20;0.80;;;;;;;6.12;89.12;97767.95;110045;1278;22315;-88
2023/12/18 02:52:05;;;;;;;0.80;0.60;;;;;;;6.16;88.49;97768.97;110145;1273;22327;-88
2023/12/18 02:54:30;;;;;;;1.40;0.80;;;;;;;6.21;88.89;97768.75;110142;1271;137487;-89
2023/12/18 02:56:57;;;;;;;1.30;0.70;;;;;;;6.24;88.33;97767.26;110087;1272;22326;-87
2023/12/18 02:59:23;;;;;;;1.30;0.70;;;;;;;6.28;87.53;97764.89;109905;1274;138256;-88
2023/12/18 03:01:49;;;;;;;1.10;0.80;;;;;;;6.31;87.70;97766.58;110080;1273;22298;-88
2023/12/18 03:04:18;;;;;;;1.60;0.70;;;;;;;6.31;88.06;97767.07;110012;1264;138653;-88
2023/12/18 03:06:48;;;;;;;1.20;0.80;;;;;;;6.32;87.76;97764.59;110096;1273;22441;-88
2023/12/18 03:09:14;;;;;;;0.80;0.70;;;;;;;6.31;87.65;97758.11;110027;1273;22303;-89
2023/12/18 03:11:40;;;;;;;1.20;0.90;;;;;;;6.26;87.92;97754.58;110186;1262;138976;-89
2023/12/18 03:14:07;;;;;;;1.20;0.90;;;;;;;6.25;87.37;97750.73;110179;1274;22180;-88
2023/12/18 03:16:33;;;;;;;1.30;0.70;;;;;;;6.25;86.92;97748.30;109891;1274;138651;-89
2023/12/18 03:18:59;;;;;;;1.30;0.70;;;;;;;6.28;86.95;97747.31;110158;1272;22246;-89
2023/12/18 03:21:25;;;;;;;0.80;0.50;;;;;;;6.32;86.84;97748.23;110317;1271;22190;-88
2023/12/18 03:23:51;;;;;;;1.30;0.80;;;;;;;6.34;86.97;97749.13;109963;1277;138439;-88
2023/12/18 03:26:18;;;;;;;1.50;0.70;;;;;;;6.36;85.91;97744.15;110104;1268;22437;-89
2023/12/18 03:28:44;;;;;;;1.60;0.70;;;;;;;6.44;85.92;97745.88;109961;1278;138545;-88
2023/12/18 03:31:10;;;;;;;1.10;0.80;;;;;;;6.52;85.85;97744.60;110055;1278;22285;-89
2023/12/18 03:33:37;;;;;;;1.20;0.60;;;;;;;6.56;86.41;97740.83;110292;1271;22184;-88
2023/12/18 03:36:04;;;;;;;1.50;0.90;;;;;;;6.55;86.28;97736.55;109923;1278;137784;-89
2023/12/18 03:38:30;;;;;;;1.50;0.70;;;;;;;6.58;86.01;97739.11;110020;1273;22783;-87
2023/12/18 03:40:56;;;;;;;0.70;0.60;;;;;;;6.61;86.20;97734.55;110105;1278;137892;-88
2023/12/18 03:43:23;;;;;;;1.50;0.70;;;;;;;6.64;85.99;97730.88;110124;1274;22873;-88
2023/12/18 03:45:49;;;;;;;1.00;0.60;;;;;;;6.64;86.31;97728.95;110122;1274;22502;-88
2023/12/18 03:48:16;;;;;;;1.20;0.80;;;;;;;6.63;86.00;97730.22;110019;1260;138223;-88
2023/12/18 03:50:42;;;;;;;0.70;0.50;;;;;;;6.65;85.21;97722.85;110293;1263;22150;-88
2023/12/18 03:53:09;;;;;;;0.70;0.50;;;;;;;6.70;84.80;97725.58;109997;1275;138704;-88
2023/12/18 03:55:35;;;;;;;1.60;0.50;;;;;;;6.81;83.60;97722.93;110259;1278;22385;-89
2023/12/18 03:58:02;;;;;;;1.00;0.70;;;;;;;6.92;84.09;97722.01;110147;1268;22205;-89
2023/12/18 04:00:28;;;;;;;1.70;0.60;;;;;;;6.96;84.95;97717.55;110026;1277;138951;-89
2023/12/18 04:02:54;;;;;;;0.90;0.70;;;;;;;6.93;84.55;97714.02;110343;1272;22184;-89
2023/12/18 04:05:20;;;;;;;1.00;0.70;;;;;;;6.90;84.78;97713.38;110170;1270;137954;-89
2023/12/18 04:07:46;;;;;;;0.60;0.50;;;;;;;6.86;84.75;97708.70;110070;1276;23263;-88
2023/12/18 04:10:13;;;;;;;0.70;0.50;;;;;;;6.84;84.57;97709.13;110124;1272;22237;-88
2023/12/18 04:12:39;;;;;;;1.10;0.70;;;;;;;6.80;83.97;97704.89;110154;1278;23047;-88
2023/12/18 04:15:06;;;;;;;0.70;0.50;;;;;;;6.83;83.93;97706.40;110271;1277;22189;-89
2023/12/18 04:17:32;;;;;;;1.00;0.50;;;;;;;6.82;83.39;97703.19;110025;1274;139180;-89
2023/12/18 04:19:58;;;;;;;0.70;0.50;;;;;;;6.83;83.55;97701.27;110311;1270;23111;-88
2023/12/18 04:22:24;;;;;;;0.70;0.60;;;;;;;6.82;83.60;97704.39;110194;1274;138574;-88
2023/12/18 04:24:50;;;;;;;1.00;0.50;;;;;;;6.80;83.77;97705.06;110104;1273;22227;-88
2023/12/18 04:27:16;;;;;;;0.80;0.60;;;;;;;6.78;83.81;97704.06;110049;1276;23130;-88
2023/12/18 04:29:42;;;;;;;0.80;0.50;;;;;;;6.76;84.01;97701.85;109949;1276;138784;-88
2023/12/18 04:32:08;;;;;;;1.10;0.40;;;;;;;6.74;83.70;97701.48;110271;1276;22314;-89
2023/12/18 04:34:34;;;;;;;1.40;0.70;;;;;;;6.73;83.88;97703.48;110199;1276;138576;-88
2023/12/18 04:37:00;;;;;;;1.10;0.70;;;;;;;6.70;84.03;97696.64;110102;1278;22871;-89
2023/12/18 04:39:26;;;;;;;2.80;1.20;;;;;;;6.65;84.13;97689.12;110122;1267;22209;-88
2023/12/18 04:41:52;;;;;;;1.60;0.90;;;;;;;6.60;83.97;97681.60;110186;1276;138845;-88
2023/12/18 04:44:18;;;;;;;1.40;0.50;;;;;;;6.55;83.89;97680.98;110263;1270;22977;-89
2023/12/18 04:46:46;;;;;;;7.90;5.10;;;;;;;6.50;83.94;97694.63;109967;1274;138813;-88
2023/12/18 04:49:13;;;;;;;11.10;7.20;;;;;;;6.37;82.73;97702.73;110122;1273;22359;-89
2023/12/18 04:51:39;;;;;;;12.40;7.70;;;;;;;6.15;82.13;97709.70;110105;1274;22365;-88
2023/12/18 04:54:05;;;;;;;13.40;8.40;;;;;;;5.96;82.65;97707.91;110174;1277;138349;-88
2023/12/18 04:56:31;;;;;;;15.10;9.40;;;;;;;5.84;82.88;97711.58;110283;1276;22195;-88
2023/12/18 04:58:57;;;;;;;13.60;9.00;;;;;;;5.73;83.25;97725.34;110050;1272;138615;-88
2023/12/18 05:01:23;;;;;;;19.10;12.40;;;;;;;5.63;83.27;97728.55;110301;1264;22354;-88
2023/12/18 05:03:49;;;;;;;20.80;12.10;;;;;;;5.48;83.37;97738.94;110104;1274;22154;-88
2023/12/18 05:06:19;;;;;;;66.70;27.60;;;;;;;5.31;83.32;97741.57;110207;1271;138744;-89
2023/12/18 05:08:46;;;;;;;73.90;32.20;;;;;;;5.22;84.31;97728.05;110262;1277;22400;-88
2023/12/18 05:11:13;;;;;;;83.60;37.10;;;;;;;5.14;84.72;97725.21;109942;1274;138987;-89
2023/12/18 05:13:39;;;;;;;66.10;30.70;;;;;;;5.05;84.97;97735.35;110281;1277;22315;-88
2023/12/18 05:16:05;;;;;;;65.20;31.00;;;;;;;4.97;85.27;97737.15;110194;1270;22484;-88
2023/12/18 05:18:31;;;;;;;54.80;26.40;;;;;;;4.87;85.50;97742.48;109993;1277;137925;-88
2023/12/18 05:20:59;;;;;;;42.50;22.10;;;;;;;4.79;85.58;97743.77;110295;1271;23115;-88
2023/12/18 05:23:25;;;;;;;59.40;30.30;;;;;;;4.68;85.92;97751.27;109941;1270;138531;-89
2023/12/18 05:25:51;;;;;;;35.20;18.20;;;;;;;4.58;86.30;97744.67;110114;1276;22376;-89
2023/12/18 05:28:18;;;;;;;20.80;11.20;;;;;;;4.52;87.19;97743.16;110026;1278;139158;-88
2023/12/18 05:30:44;;;;;;;46.00;22.10;;;;;;;4.50;86.54;97742.66;110300;1272;22243;-88
2023/12/18 05:33:10;;;;;;;14.80;6.20;;;;;;;4.49;86.08;97744.07;110114;1274;22306;-87
2023/12/18 05:35:36;;;;;;;11.70;4.90;;;;;;;4.55;85.19;97745.05;110110;1277;138603;-88
2023/12/18 05:38:03;;;;;;;23.50;8.70;;;;;;;4.68;85.20;97743.71;110068;1278;22205;-88
2023/12/18 05:40:29;;;;;;;23.60;9.10;;;;;;;4.79;84.67;97742.94;110166;1271;139255;-88
2023/12/18 05:42:55;;;;;;;10.00;4.50;;;;;;;4.88;84.86;97747.24;110106;1274;23164;-88
2023/12/18 05:45:21;;;;;;;23.60;11.90;;;;;;;4.96;83.78;97748.89;110155;1273;22352;-88
2023/12/18 05:47:47;;;;;;;49.10;22.00;;;;;;;5.10;83.81;97751.48;110188;1278;139365;-88
2023/12/18 05:50:13;;;;;;;96.60;27.10;;;;;;;5.20;84.09;97755.88;110154;1272;22399;-89
2023/12/18 05:52:39;;;;;;;92.00;28.00;;;;;;;5.28;83.06;97761.91;110025;1278;138579;-88
2023/12/18 05:55:06;;;;;;;47.80;15.60;;;;;;;5.35;82.54;97762.80;110148;1276;23818;-88
2023/12/18 05:57:32;;;;;;;39.00;11.70;;;;;;;5.37;82.99;97768.81;110263;1272;22289;-88
2023/12/18 05:59:59;;;;;;;20.90;9.80;;;;;;;5.35;83.74;97773.23;110063;1278;138376;-89
2023/12/18 06:02:25;;;;;;;129.40;38.30;;;;;;;5.29;82.99;97767.20;110122;1265;22186;-89
2023/12/18 06:04:51;;;;;;;106.50;46.20;;;;;;;5.28;83.33;97774.16;110023;1277;139338;-88
2023/12/18 06:07:17;;;;;;;18.80;9.40;;;;;;;5.26;83.79;97772.21;110218;1271;22181;-89
2023/12/18 06:09:43;;;;;;;47.70;14.30;;;;;;;5.24;84.01;97773.63;110166;1278;22209;-88
2023/12/18 06:12:10;;;;;;;38.50;15.10;;;;;;;5.25;83.29;97780.06;109962;1274;138793;-88
2023/12/18 06:14:37;;;;;;;27.20;11.50;;;;;;;5.29;82.93;97789.55;110183;1276;22175;-89
2023/12/18 06:17:03;;;;;;;79.40;27.80;;;;;;;5.32;82.82;97793.25;110048;1268;138622;-88
2023/12/18 06:19:29;;;;;;;71.90;23.40;;;;;;;5.36;82.69;97797.10;110277;1271;22225;-88
2023/12/18 06:21:55;;;;;;;44.60;13.50;;;;;;;5.39;82.92;97799.77;110280;1271;23091;-88
2023/12/18 06:24:21;;;;;;;22.90;8.50;;;;;;;5.42;83.34;97802.67;110181;1270;138344;-88
2023/12/18 06:26:47;;;;;;;13.40;6.00;;;;;;;5.42;83.90;97803.98;110274;1262;22920;-88
2023/12/18 06:29:13;;;;;;;83.30;42.10;;;;;;;5.42;83.92;97809.66;110154;1277;138541;-88
2023/12/18 06:31:39;;;;;;;22.80;9.00;;;;;;;5.42;83.94;97811.54;110247;1278;22892;-89
2023/12/18 06:34:05;;;;;;;35.10;9.20;;;;;;;5.42;84.41;97815.03;110041;1275;22277;-88
2023/12/18 06:36:32;;;;;;;21.00;6.70;;;;;;;5.41;84.08;97815.56;110131;1278;137593;-89
2023/12/18 06:38:58;;;;;;;7.70;3.40;;;;;;;5.43;84.21;97817.52;110105;1270;22201;-89
2023/12/18 06:41:24;;;;;;;6.10;2.40;;;;;;;5.43;84.84;97828.17;110118;1277;138346;-88
2023/12/18 06:43:50;;;;;;;16.30;5.80;;;;;;;5.41;84.99;97833.98;110272;1269;22396;-88
2023/12/18 06:46:16;;;;;;;38.70;20.60;;;;;;;5.40;84.16;97832.35;110001;1278;138152;-88
2023/12/18 06:48:42;;;;;;;51.30;17.60;;;;;;;5.44;84.16;97831.17;110033;1273;22350;-88
2023/12/18 06:51:11;;;;;;;19.80;6.10;;;;;;;5.47;84.46;97830.52;110029;1275;22277;-89
2023/12/18 06:53:37;;;;;;;13.00;4.50;;;;;;;5.47;84.93;97837.69;110055;1270;138820;-88
2023/12/18 06:56:04;;;;;;;14.30;5.70;;;;;;;5.46;85.25;97835.39;110076;1278;22212;-88
2023/12/18 06:58:30;;;;;;;6.30;2.40;;;;;;;5.44;85.58;97836.19;110008;1271;138854;-89
2023/12/18 07:00:57;;;;;;;26.80;15.00;;;;;;;5.43;85.85;97833.50;110127;1274;22231;-88
2023/12/18 07:03:24;;;;;;;13.40;8.20;;;;;;;5.42;85.28;97833.70;110251;1271;22257;-88
2023/12/18 07:05:50;;;;;;;7.30;3.90;;;;;;;5.42;85.95;97834.89;109991;1273;138631;-88
2023/12/18 07:08:16;;;;;;;4.30;1.90;;;;;;;5.41;86.44;97836.77;110317;1272;22322;-88
2023/12/18 07:10:42;;;;;;;3.00;2.00;;;;;;;5.38;86.70;97838.55;110168;1274;138613;-89
2023/12/18 07:13:08;;;;;;;10.20;3.90;;;;;;;5.34;86.06;97838.98;110314;1276;22191;-89
2023/12/18 07:15:34;;;;;;;10.30;6.00;;;;;;;5.36;86.27;97840.20;110281;1278;22363;-88
2023/12/18 07:18:01;;;;;;;3.60;2.70;;;;;;;5.37;86.10;97834.67;110002;1274;138385;-88
2023/12/18 07:20:26;;;;;;;11.20;4.90;;;;;;;5.38;86.41;97841.46;110230;1278;23992;-89
2023/12/18 07:22:53;;;;;;;19.60;7.40;;;;;;;5.38;85.77;97845.56;110024;1276;139117;-88
2023/12/18 07:25:19;;;;;;;7.00;2.80;;;;;;;5.41;85.60;97841.91;110068;1277;22233;-88
2023/12/18 07:27:45;;;;;;;26.90;18.90;;;;;;;5.45;85.57;97836.65;110138;1275;23080;-88
2023/12/18 07:30:12;;;;;;;34.60;16.30;;;;;;;5.48;85.57;97832.63;109924;1275;138019;-88
2023/12/18 07:32:38;;;;;;;45.80;15.70;;;;;;;5.52;85.01;97835.08;110021;1270;22334;-88
2023/12/18 07:35:05;;;;;;;12.10;4.60;;;;;;;5.59;85.40;97832.98;110119;1272;138891;-88
2023/12/18 07:37:32;;;;;;;12.00;4.20;;;;;;;5.61;85.39;97828.67;110121;1278;22211;-88
2023/12/18 07:39:58;;;;;;;10.20;4.30;;;;;;;5.64;85.17;97822.65;110046;1274;23148;-88
2023/12/18 07:42:24;;;;;;;20.90;7.20;;;;;;;5.68;84.32;97821.31;109950;1274;137235;-88
2023/12/18 07:44:51;;;;;;;25.10;15.10;;;;;;;5.77;84.14;97822.05;110225;1277;22257;-88
2023/12/18 07:47:17;;;;;;;6.40;3.70;;;;;;;5.84;83.92;97817.69;110081;1262;138755;-88
2023/12/18 07:49:43;;;;;;;2.90;2.10;;;;;;;5.88;83.96;97813.80;110073;1274;22318;-89
2023/12/18 07:52:09;;;;;;;8.70;3.30;;;;;;;5.93;83.84;97812.20;110058;1274;22241;-88
2023/12/18 07:54:36;;;;;;;9.00;4.30;;;;;;;6.01;83.10;97809.84;110068;1273;137536;-88
2023/12/18 07:57:03;;;;;;;13.90;6.10;;;;;;;6.12;82.66;97803.34;110184;1275;22236;-88
2023/12/18 07:59:29;;;;;;;19.60;14.10;;;;;;;6.22;82.38;97798.41;110045;1277;138299;-88
2023/12/18 08:01:55;;;;;;;12.20;5.40;;;;;;;6.30;82.25;97790.02;110244;1275;22448;-88
2023/12/18 08:04:21;;;;;;;24.30;9.60;;;;;;;6.38;81.84;97789.10;110018;1278;138416;-88
2023/12/18 08:06:47;;;;;;;35.00;12.70;;;;;;;6.45;81.47;97791.47;110184;1268;22908;-89
2023/12/18 08:09:14;;;;;;;16.10;6.00;;;;;;;6.51;81.32;97784.95;110147;1275;22926;-89
2023/12/18 08:11:40;;;;;;;12.60;4.70;;;;;;;6.55;81.15;97779.64;110059;1272;138372;-88
2023/12/18 08:14:06;;;;;;;30.70;18.10;;;;;;;6.60;80.40;97777.64;110219;1278;22170;-88
2023/12/18 08:16:32;;;;;;;20.20;8.60;;;;;;;6.65;80.02;97768.30;110046;1274;139112;-88
2023/12/18 08:18:58;;;;;;;17.80;7.30;;;;;;;6.75;79.58;97766.16;110268;1274;22181;-89
2023/12/18 08:21:24;;;;;;;8.10;3.50;;;;;;;6.82;79.40;97762.83;110286;1274;23001;-88
2023/12/18 08:23:50;;;;;;;8.70;3.70;;;;;;;6.86;79.36;97770.27;110039;1271;137980;-89
2023/12/18 08:26:17;;;;;;;19.30;7.60;;;;;;;6.88;78.70;97769.69;110271;1276;22207;-88
2023/12/18 08:28:43;;;;;;;17.10;6.40;;;;;;;6.93;78.37;97771.56;110128;1275;138733;-89
2023/12/18 08:31:11;;;;;;;25.70;9.10;;;;;;;6.96;78.15;97772.69;110088;1275;22396;-89
2023/12/18 08:33:40;;;;;;;20.60;10.30;;;;;;;6.96;78.25;97764.92;110213;1278;22154;-88
2023/12/18 08:36:06;;;;;;;47.90;25.80;;;;;;;6.97;77.81;97765.36;110064;1274;139199;-88
2023/12/18 08:38:32;;;;;;;57.50;23.90;;;;;;;6.99;77.65;97767.27;110031;1275;23008;-88
2023/12/18 08:40:59;;;;;;;36.10;16.20;;;;;;;6.99;77.83;97764.86;110026;1278;138258;-88
2023/12/18 08:43:25;;;;;;;22.20;10.20;;;;;;;6.96;78.57;97762.90;110220;1275;22258;-88
2023/12/18 08:45:51;;;;;;;35.20;13.60;;;;;;;6.92;78.16;97763.87;110208;1278;22351;-88
2023/12/18 08:48:17;;;;;;;13.90;5.60;;;;;;;6.92;77.49;97758.75;109991;1278;138116;-88
2023/12/18 08:50:43;;;;;;;21.60;13.20;;;;;;;7.00;76.79;97759.95;110128;1278;23034;-88
2023/12/18 08:53:09;;;;;;;16.10;9.00;;;;;;;7.09;76.28;97760.55;109887;1278;137763;-88
2023/12/18 08:55:39;;;;;;;16.00;7.30;;;;;;;7.19;75.93;97752.48;110132;1275;22942;-89
2023/12/18 08:58:08;;;;;;;26.20;9.30;;;;;;;7.30;75.78;97752.98;110175;1276;23140;-88
2023/12/18 09:00:34;;;;;;;13.20;5.90;;;;;;;7.37;74.99;97753.77;109945;1269;137675;-88
2023/12/18 09:03:02;;;;;;;15.20;7.20;;;;;;;7.47;75.40;97754.30;109976;1279;23115;-88
2023/12/18 09:05:29;;;;;;;14.00;7.40;;;;;;;7.56;74.55;97751.30;109999;1278;137736;-88
2023/12/18 09:07:55;;;;;;;5.70;3.30;;;;;;;7.66;73.88;97752.69;110055;1278;22432;-88
2023/12/18 09:10:24;;;;;;;10.50;5.10;;;;;;;7.75;74.52;97749.54;110011;1278;137311;-88
2023/12/18 09:12:51;;;;;;;13.90;6.60;;;;;;;7.78;74.27;97752.00;110010;1278;22671;-89
2023/12/18 09:15:17;;;;;;;13.50;6.30;;;;;;;7.80;74.21;97746.13;110135;1273;22254;-89
2023/12/18 09:17:43;;;;;;;55.50;33.50;;;;;;;7.82;74.21;97748.41;110108;1278;138010;-88
2023/12/18 09:20:09;;;;;;;30.00;12.40;;;;;;;7.88;73.86;97735.29;110092;1278;22942;-88
2023/12/18 09:22:36;;;;;;;11.00;7.50;;;;;;;7.96;73.09;97729.30;109938;1271;138234;-89
2023/12/18 09:25:02;;;;;;;10.90;6.10;;;;;;;8.06;73.37;97728.19;110141;1273;22213;-89
2023/12/18 09:27:29;;;;;;;14.30;7.00;;;;;;;8.14;73.13;97728.87;110026;1277;22187;-88
2023/12/18 09:29:55;;;;;;;14.80;6.30;;;;;;;8.24;72.68;97734.95;110136;1271;137316;-88
2023/12/18 09:32:21;;;;;;;15.90;7.00;;;;;;;8.35;72.37;97728.27;110157;1277;22255;-89
2023/12/18 09:34:47;;;;;;;14.90;6.90;;;;;;;8.44;71.52;97727.49;109937;1277;138418;-89
2023/12/18 09:37:13;;;;;;;18.60;8.40;;;;;;;8.54;72.25;97724.52;110263;1278;22273;-88
2023/12/18 09:39:40;;;;;;;13.20;7.30;;;;;;;8.58;72.17;97725.55;110164;1276;22234;-89
2023/12/18 09:42:07;;;;;;;8.00;4.20;;;;;;;8.62;71.70;97718.17;109993;1275;137769;-88
2023/12/18 09:44:33;;;;;;;11.30;5.70;;;;;;;8.69;71.70;97712.61;110038;1278;22232;-89
2023/12/18 09:46:59;;;;;;;11.50;5.40;;;;;;;8.76;71.23;97707.73;109917;1278;137776;-88
2023/12/18 09:49:25;;;;;;;10.60;7.80;;;;;;;8.82;71.20;97699.92;110269;1271;22360;-89
2023/12/18 09:51:53;;;;;;;17.50;8.20;;;;;;;8.88;71.37;97693.48;110205;1274;22351;-89
2023/12/18 09:54:19;;;;;;;6.50;3.20;;;;;;;8.93;70.14;97692.99;110135;1274;137959;-89
2023/12/18 09:56:48;;;;;;;6.30;3.50;;;;;;;9.05;70.32;97698.31;110024;1274;23169;-88
2023/12/18 09:59:17;;;;;;;12.70;5.80;;;;;;;9.16;70.16;97702.04;109957;1278;138084;-88
2023/12/18 10:01:46;;;;;;;12.00;5.50;;;;;;;9.25;70.22;97708.25;110062;1270;22392;-89
2023/12/18 10:04:12;;;;;;;8.20;4.50;;;;;;;9.31;70.29;97708.04;110034;1275;22367;-89
2023/12/18 10:06:39;;;;;;;8.40;4.90;;;;;;;9.36;69.59;97708.96;109942;1270;138378;-88
2023/12/18 10:09:13;;;;;;;4.30;2.90;;;;;;;9.41;70.01;97709.71;110148;1278;22345;-88
2023/12/18 10:11:39;;;;;;;8.40;4.60;;;;;;;9.46;69.05;97706.09;109898;1272;138940;-89
2023/12/18 10:14:05;;;;;;;11.30;5.90;;;;;;;9.55;69.28;97707.01;110034;1278;22374;-88
2023/12/18 10:16:32;;;;;;;13.00;5.90;;;;;;;9.59;69.57;97709.23;109934;1270;137952;-89
2023/12/18 10:18:58;;;;;;;3.00;1.90;;;;;;;9.63;68.96;97708.38;110118;1278;22915;-88
2023/12/18 10:21:25;;;;;;;6.30;3.10;;;;;;;9.67;69.58;97712.02;110003;1278;204183;-89
2023/12/18 10:23:52;;;;;;;11.60;6.00;;;;;;;9.69;69.79;97706.45;109926;1278;137729;-89
2023/12/18 10:26:19;;;;;;;7.70;3.70;;;;;;;9.69;69.61;97705.69;109993;1272;22287;-89
2023/12/18 10:28:45;;;;;;;3.90;2.20;;;;;;;9.72;69.94;97702.28;109961;1278;137896;-89
2023/12/18 10:31:11;;;;;;;5.70;3.40;;;;;;;9.74;69.56;97699.58;110015;1278;22720;-89
2023/12/18 10:33:38;;;;;;;8.50;4.30;;;;;;;9.76;69.67;97699.49;110246;1278;22377;-88
2023/12/18 10:36:06;;;;;;;9.30;4.60;;;;;;;9.80;69.63;97699.51;109959;1275;137933;-89
2023/12/18 10:38:32;;;;;;;7.90;4.20;;;;;;;9.84;69.91;97692.70;110089;1272;22372;-89
2023/12/18 10:40:59;;;;;;;7.20;3.60;;;;;;;9.86;70.04;97693.85;109904;1276;137784;-88
2023/12/18 10:43:25;;;;;;;5.70;3.20;;;;;;;9.90;69.92;97686.72;110012;1278;22576;-89
2023/12/18 10:45:52;;;;;;;8.50;4.70;;;;;;;9.95;69.58;97685.43;110000;1270;22384;-88
2023/12/18 10:48:19;;;;;;;7.70;4.20;;;;;;;10.02;69.41;97681.11;110100;1278;137616;-89
2023/12/18 10:50:47;;;;;;;9.90;4.50;;;;;;;10.08;69.86;97677.22;110035;1270;22957;-89
2023/12/18 10:53:15;;;;;;;7.80;4.00;;;;;;;10.16;69.29;97672.50;109936;1276;138189;-89
2023/12/18 10:55:41;;;;;;;8.70;3.70;;;;;;;10.25;67.87;97666.77;110096;1278;22331;-89
2023/12/18 10:58:07;;;;;;;3.80;2.60;;;;;;;10.37;68.08;97666.03;110147;1278;22348;-88
2023/12/18 11:00:34;;;;;;;6.50;3.60;;;;;;;10.47;68.23;97662.45;110040;1278;137984;-89
2023/12/18 11:03:00;;;;;;;3.40;2.00;;;;;;;10.55;67.98;97661.24;110020;1270;22304;-88
2023/12/18 11:05:26;;;;;;;4.20;2.60;;;;;;;10.64;67.37;97653.98;110025;1274;138304;-89
2023/12/18 11:07:52;;;;;;;3.40;2.10;;;;;;;10.73;67.05;97649.85;110045;1278;22501;-88
2023/12/18 11:10:18;;;;;;;3.90;2.30;;;;;;;10.82;67.01;97648.41;110132;1278;138200;-89
2023/12/18 11:12:44;;;;;;;3.80;1.90;;;;;;;10.88;66.40;97651.58;109979;1276;22206;-89
2023/12/18 11:15:32;;;;;;;4.20;2.80;;;;;;;10.95;66.55;97652.61;110106;1278;22332;-89
2023/12/18 11:18:34;;;;;;;2.30;1.60;;;;;;;11.00;66.34;97647.98;110163;1272;137688;-89
2023/12/18 11:21:00;;;;;;;1.80;1.20;;;;;;;11.07;65.45;97646.09;110074;1270;22391;-88